Time;durP1;ratioP1;P1;durP2;ratioP2;P2;SDS_P1;SDS_P2;PMS_P1;PMS_P2;Temp;Humidity;BMP_temperature;BMP_pressure;BME280_temperature;BME280_humidity;BME280_pressure;Samples;Min_cycle;Max_cycle;Signal;HPM_P1;HPM_P2
2023/04/24 00:04:31;;;;;;;27.20;15.32;;;;;;;;;;10526400;28;20143;-79
2023/04/24 00:09:32;;;;;;;20.95;13.60;;;;;;;;;;10526158;28;20063;-80
2023/04/24 00:14:34;;;;;;;26.70;15.48;;;;;;;;;;10525573;28;20811;-79
2023/04/24 00:19:35;;;;;;;22.25;13.50;;;;;;;;;;10525444;28;20088;-80
2023/04/24 00:24:38;;;;;;;23.77;14.27;;;;;;;;;;10526611;28;20044;-80
2023/04/24 00:29:45;;;;;;;24.67;14.95;;;;;;;;;;10526162;28;20043;-80
2023/04/24 00:34:48;;;;;;;27.80;16.00;;;;;;;;;;10526305;28;20085;-80
2023/04/24 00:39:51;;;;;;;26.48;15.25;;;;;;;;;;10526399;28;20032;-79
2023/04/24 00:44:52;;;;;;;24.42;14.13;;;;;;;;;;10526518;28;20055;-79
2023/04/24 00:49:55;;;;;;;24.77;15.20;;;;;;;;;;10527656;28;20047;-79
2023/04/24 00:54:56;;;;;;;24.92;15.45;;;;;;;;;;10525303;28;20032;-79
2023/04/24 00:59:58;;;;;;;23.08;13.73;;;;;;;;;;10527318;28;20028;-79
2023/04/24 01:04:59;;;;;;;21.90;12.93;;;;;;;;;;10531606;28;20052;-80
2023/04/24 01:10:02;;;;;;;22.45;14.50;;;;;;;;;;10535082;28;20031;-80
2023/04/24 01:15:07;;;;;;;21.35;13.43;;;;;;;;;;10526229;28;20032;-80
2023/04/24 01:20:08;;;;;;;23.08;14.32;;;;;;;;;;10521395;28;20028;-80
2023/04/24 01:25:09;;;;;;;20.95;13.18;;;;;;;;;;10507813;28;20101;-80
2023/04/24 01:30:15;;;;;;;21.60;13.77;;;;;;;;;;10524972;28;20024;-80
2023/04/24 01:35:16;;;;;;;23.25;13.98;;;;;;;;;;10524777;28;20028;-80
2023/04/24 01:40:17;;;;;;;25.83;14.32;;;;;;;;;;10525856;28;20036;-80
2023/04/24 01:45:18;;;;;;;21.67;13.23;;;;;;;;;;10514388;28;20433;-79
2023/04/24 01:50:19;;;;;;;19.13;12.47;;;;;;;;;;10526081;28;20436;-79
2023/04/24 01:55:20;;;;;;;21.63;13.43;;;;;;;;;;10528367;28;20044;-79
2023/04/24 02:00:24;;;;;;;21.50;13.88;;;;;;;;;;10533540;28;20520;-80
2023/04/24 02:05:25;;;;;;;25.65;13.68;;;;;;;;;;10533429;28;20043;-80
2023/04/24 02:10:26;;;;;;;21.83;12.75;;;;;;;;;;10532552;28;20478;-79
2023/04/24 02:15:29;;;;;;;22.67;13.80;;;;;;;;;;10532043;28;20469;-80
2023/04/24 02:20:30;;;;;;;21.38;12.85;;;;;;;;;;10531767;28;20039;-79
2023/04/24 02:25:36;;;;;;;19.83;12.00;;;;;;;;;;10532129;28;20046;-79
2023/04/24 02:30:37;;;;;;;23.05;12.25;;;;;;;;;;10531219;28;20036;-79
2023/04/24 02:35:40;;;;;;;19.67;11.67;;;;;;;;;;10531823;28;20043;-80
2023/04/24 02:40:41;;;;;;;20.27;11.63;;;;;;;;;;10513394;28;20031;-79
2023/04/24 02:45:44;;;;;;;22.13;11.50;;;;;;;;;;10530345;28;20039;-79
2023/04/24 02:50:47;;;;;;;19.03;10.27;;;;;;;;;;10531408;28;20101;-80
2023/04/24 02:55:49;;;;;;;21.17;11.17;;;;;;;;;;10530654;28;20032;-81
2023/04/24 03:00:54;;;;;;;16.80;10.20;;;;;;;;;;10530653;28;20032;-80
2023/04/24 03:05:58;;;;;;;15.03;9.57;;;;;;;;;;10537069;28;20058;-82
2023/04/24 03:11:01;;;;;;;15.70;9.23;;;;;;;;;;10529720;28;20024;-82
2023/04/24 03:16:02;;;;;;;17.10;9.83;;;;;;;;;;10529259;28;20028;-80
2023/04/24 03:21:03;;;;;;;15.60;9.40;;;;;;;;;;10529447;28;20032;-80
2023/04/24 03:26:04;;;;;;;16.20;10.00;;;;;;;;;;10528542;28;20423;-81
2023/04/24 03:31:05;;;;;;;17.33;9.83;;;;;;;;;;10527765;28;20036;-80
2023/04/24 03:36:08;;;;;;;18.63;11.00;;;;;;;;;;10528730;28;20027;-82
2023/04/24 03:41:11;;;;;;;18.03;10.10;;;;;;;;;;10527859;28;20528;-81
2023/04/24 03:46:12;;;;;;;16.13;10.00;;;;;;;;;;10527475;28;20051;-82
2023/04/24 03:51:15;;;;;;;13.73;8.73;;;;;;;;;;10526188;28;20039;-80
2023/04/24 03:56:16;;;;;;;11.70;7.73;;;;;;;;;;10535620;28;20490;-82
2023/04/24 04:01:18;;;;;;;30.03;14.27;;;;;;;;;;10524358;28;20039;-78
2023/04/24 04:06:21;;;;;;;15.90;8.87;;;;;;;;;;10530188;28;20087;-81
2023/04/24 04:11:27;;;;;;;11.80;7.50;;;;;;;;;;10526287;28;20487;-81
2023/04/24 04:16:30;;;;;;;13.82;7.60;;;;;;;;;;10526382;28;20024;-81
2023/04/24 04:21:32;;;;;;;16.23;8.90;;;;;;;;;;10526731;28;20036;-80
2023/04/24 04:26:35;;;;;;;32.93;15.83;;;;;;;;;;10526796;28;20040;-81
2023/04/24 04:31:36;;;;;;;19.73;10.97;;;;;;;;;;10526806;28;20484;-82
2023/04/24 04:36:39;;;;;;;17.17;9.77;;;;;;;;;;10524705;28;20036;-81
2023/04/24 04:41:41;;;;;;;14.27;9.73;;;;;;;;;;10524966;28;20027;-82
2023/04/24 04:46:45;;;;;;;15.57;9.27;;;;;;;;;;10521486;28;20048;-82
2023/04/24 04:51:46;;;;;;;18.63;10.07;;;;;;;;;;10524046;28;20036;-82
2023/04/24 04:56:49;;;;;;;14.77;8.97;;;;;;;;;;10525316;28;20103;-83
2023/04/24 05:01:50;;;;;;;16.58;7.97;;;;;;;;;;10508710;28;20051;-83
2023/04/24 05:06:55;;;;;;;14.00;8.07;;;;;;;;;;10526425;28;20135;-82
2023/04/24 05:11:56;;;;;;;13.30;8.32;;;;;;;;;;10526267;28;20078;-84
2023/04/24 05:16:57;;;;;;;10.82;7.20;;;;;;;;;;10524793;28;20079;-82
2023/04/24 05:21:58;;;;;;;14.80;7.90;;;;;;;;;;10525303;28;20032;-82
2023/04/24 05:27:02;;;;;;;11.27;7.68;;;;;;;;;;10526754;28;20071;-82
2023/04/24 05:32:03;;;;;;;13.38;8.07;;;;;;;;;;10531414;28;20031;-81
2023/04/24 05:37:08;;;;;;;13.70;8.27;;;;;;;;;;10533397;28;20028;-84
2023/04/24 05:42:09;;;;;;;11.65;7.13;;;;;;;;;;10532255;28;20490;-81
2023/04/24 05:47:10;;;;;;;13.75;7.75;;;;;;;;;;10531588;28;20048;-82
2023/04/24 05:52:11;;;;;;;14.65;7.90;;;;;;;;;;10519150;28;20043;-80
2023/04/24 05:57:12;;;;;;;16.73;7.43;;;;;;;;;;10513493;28;20032;-83
2023/04/24 06:02:12;;;;;;;18.60;7.45;;;;;;;;;;10525408;28;20059;-82
2023/04/24 06:07:13;;;;;;;13.82;7.63;;;;;;;;;;10530871;28;20131;-82
2023/04/24 06:12:15;;;;;;;14.38;8.07;;;;;;;;;;10531329;28;20036;-83
2023/04/24 06:17:24;;;;;;;13.00;7.25;;;;;;;;;;10532119;28;20111;-82
2023/04/24 06:22:25;;;;;;;15.43;7.35;;;;;;;;;;10524143;28;20164;-82
2023/04/24 06:27:27;;;;;;;14.23;6.65;;;;;;;;;;10531070;28;20048;-82
2023/04/24 06:32:34;;;;;;;17.17;9.48;;;;;;;;;;10530424;28;20031;-82
2023/04/24 06:37:37;;;;;;;11.27;6.47;;;;;;;;;;10529256;28;20035;-82
2023/04/24 06:42:38;;;;;;;23.48;13.77;;;;;;;;;;10530863;28;20844;-83
2023/04/24 06:47:43;;;;;;;10.82;6.53;;;;;;;;;;10531683;28;20455;-83
2023/04/24 06:52:44;;;;;;;10.65;5.85;;;;;;;;;;10531210;28;20032;-84
2023/04/24 06:57:45;;;;;;;10.00;7.03;;;;;;;;;;10531672;28;20030;-82
2023/04/24 07:02:46;;;;;;;12.20;5.43;;;;;;;;;;10531453;28;20051;-82
2023/04/24 07:07:49;;;;;;;11.07;5.53;;;;;;;;;;10530990;28;20043;-82
2023/04/24 07:12:50;;;;;;;7.47;4.85;;;;;;;;;;10530371;28;20445;-82
2023/04/24 07:17:51;;;;;;;8.80;5.57;;;;;;;;;;10529698;28;20073;-83
2023/04/24 07:23:00;;;;;;;8.30;4.88;;;;;;;;;;10529699;28;20016;-82
2023/04/24 07:28:05;;;;;;;8.13;4.57;;;;;;;;;;10529864;28;20036;-82
2023/04/24 07:33:06;;;;;;;7.43;5.00;;;;;;;;;;10529478;28;20031;-81
2023/04/24 07:38:07;;;;;;;15.15;4.90;;;;;;;;;;10515756;28;20032;-80
2023/04/24 07:43:10;;;;;;;10.55;4.80;;;;;;;;;;10529106;28;20535;-80
2023/04/24 07:48:13;;;;;;;9.88;4.28;;;;;;;;;;10528972;28;20058;-81
2023/04/24 07:53:14;;;;;;;7.95;4.05;;;;;;;;;;10528476;28;20032;-80
2023/04/24 07:58:15;;;;;;;6.93;4.63;;;;;;;;;;10528244;28;20028;-79
2023/04/24 08:03:19;;;;;;;7.85;4.40;;;;;;;;;;10528644;28;20491;-80
2023/04/24 08:08:23;;;;;;;6.32;4.30;;;;;;;;;;10527686;28;20119;-81
2023/04/24 08:13:24;;;;;;;10.00;4.60;;;;;;;;;;10510147;28;20115;-83
2023/04/24 08:18:26;;;;;;;11.32;4.43;;;;;;;;;;10528006;28;20031;-82
2023/04/24 08:23:27;;;;;;;6.93;4.20;;;;;;;;;;10528025;28;20039;-82
2023/04/24 08:28:28;;;;;;;5.88;4.30;;;;;;;;;;10527411;28;20505;-81
2023/04/24 08:33:34;;;;;;;8.32;4.25;;;;;;;;;;10526933;28;20031;-81
2023/04/24 08:38:35;;;;;;;7.00;4.60;;;;;;;;;;10527516;28;20376;-80
2023/04/24 08:43:36;;;;;;;6.57;4.10;;;;;;;;;;10527309;28;20032;-81
2023/04/24 08:48:38;;;;;;;5.85;4.15;;;;;;;;;;10527217;28;20617;-80
2023/04/24 08:53:40;;;;;;;7.18;4.15;;;;;;;;;;10522127;28;20567;-81
2023/04/24 08:58:41;;;;;;;8.75;4.63;;;;;;;;;;10523416;28;20020;-80
2023/04/24 09:03:45;;;;;;;7.47;4.93;;;;;;;;;;10531014;28;20046;-81
2023/04/24 09:08:49;;;;;;;8.25;4.85;;;;;;;;;;10534151;28;20035;-80
2023/04/24 09:13:51;;;;;;;5.03;3.80;;;;;;;;;;10535581;28;20077;-81
2023/04/24 09:18:59;;;;;;;7.63;4.50;;;;;;;;;;10534883;28;20035;-80
2023/04/24 09:24:07;;;;;;;6.03;4.20;;;;;;;;;;10533802;28;20020;-80
2023/04/24 09:29:08;;;;;;;6.28;4.13;;;;;;;;;;10533217;28;20035;-81
2023/04/24 09:34:11;;;;;;;8.32;4.18;;;;;;;;;;10533845;28;20016;-80
2023/04/24 09:39:20;;;;;;;5.68;3.97;;;;;;;;;;10534301;28;20035;-80
2023/04/24 09:44:22;;;;;;;5.32;3.78;;;;;;;;;;10533908;28;20028;-80
2023/04/24 09:49:29;;;;;;;7.60;4.32;;;;;;;;;;10533994;28;20024;-81
2023/04/24 09:54:31;;;;;;;5.32;3.67;;;;;;;;;;10532761;28;20515;-80
2023/04/24 09:59:32;;;;;;;6.47;4.68;;;;;;;;;;10532874;28;20032;-81
2023/04/24 10:04:35;;;;;;;4.97;3.92;;;;;;;;;;10532061;28;20395;-82
2023/04/24 10:09:36;;;;;;;8.73;4.75;;;;;;;;;;10547504;28;20031;-80
2023/04/24 10:14:39;;;;;;;7.20;4.07;;;;;;;;;;10525559;28;20035;-80
2023/04/24 10:19:41;;;;;;;4.80;3.38;;;;;;;;;;10531817;28;20039;-80
2023/04/24 10:24:45;;;;;;;7.35;4.00;;;;;;;;;;10532412;28;20044;-80
2023/04/24 10:29:48;;;;;;;7.05;3.72;;;;;;;;;;10532316;28;20034;-79
2023/04/24 10:34:49;;;;;;;6.30;3.88;;;;;;;;;;10531795;28;20379;-82
2023/04/24 10:39:54;;;;;;;17.42;7.05;;;;;;;;;;10532354;28;20032;-80
2023/04/24 10:44:56;;;;;;;9.47;5.47;;;;;;;;;;10531663;28;20071;-81
2023/04/24 10:49:59;;;;;;;6.85;3.75;;;;;;;;;;10531259;28;20332;-80
2023/04/24 10:55:02;;;;;;;4.63;3.42;;;;;;;;;;10518598;28;20036;-80
2023/04/24 11:00:15;;;;;;;6.53;3.95;;;;;;;;;;10532028;28;20106;-80
2023/04/24 11:05:17;;;;;;;6.35;4.10;;;;;;;;;;10531012;28;20043;-80
2023/04/24 11:10:27;;;;;;;13.35;4.30;;;;;;;;;;10530689;28;20028;-81
2023/04/24 11:15:29;;;;;;;7.07;4.43;;;;;;;;;;10530232;28;20044;-81
2023/04/24 11:20:32;;;;;;;7.40;4.43;;;;;;;;;;10530511;28;20016;-81
2023/04/24 11:25:36;;;;;;;6.80;5.55;;;;;;;;;;10530175;28;20040;-81
2023/04/24 11:30:40;;;;;;;10.13;5.28;;;;;;;;;;10529395;28;20032;-81
2023/04/24 11:35:41;;;;;;;5.30;4.60;;;;;;;;;;10530041;28;20027;-80
2023/04/24 11:40:42;;;;;;;7.30;4.25;;;;;;;;;;10529686;28;20035;-81
2023/04/24 11:45:48;;;;;;;9.27;4.40;;;;;;;;;;10528494;28;20562;-80
2023/04/24 11:50:50;;;;;;;8.73;4.00;;;;;;;;;;10528678;28;20032;-79
2023/04/24 11:55:51;;;;;;;8.60;5.20;;;;;;;;;;10528569;28;20031;-83
2023/04/24 12:01:01;;;;;;;6.70;4.75;;;;;;;;;;10528253;28;20032;-81
2023/04/24 12:06:09;;;;;;;6.75;4.88;;;;;;;;;;10529368;28;20039;-79
2023/04/24 12:11:10;;;;;;;7.63;4.78;;;;;;;;;;10521323;28;20347;-83
2023/04/24 12:16:13;;;;;;;5.60;4.53;;;;;;;;;;10509194;28;20040;-80
2023/04/24 12:21:21;;;;;;;8.27;5.38;;;;;;;;;;10528378;28;20043;-81
2023/04/24 12:26:23;;;;;;;8.05;5.30;;;;;;;;;;10527807;28;20115;-82
2023/04/24 12:31:24;;;;;;;7.80;5.57;;;;;;;;;;10528198;28;20063;-79
2023/04/24 12:36:26;;;;;;;8.65;5.57;;;;;;;;;;10508276;28;20028;-80
2023/04/24 12:41:27;;;;;;;6.20;4.88;;;;;;;;;;10526626;28;20050;-79
2023/04/24 12:46:28;;;;;;;9.27;5.53;;;;;;;;;;10525860;28;20048;-81
2023/04/24 12:51:29;;;;;;;7.78;6.40;;;;;;;;;;10527138;28;20382;-81
2023/04/24 12:56:31;;;;;;;8.90;6.15;;;;;;;;;;10528189;28;20031;-80
2023/04/24 13:01:34;;;;;;;9.48;5.43;;;;;;;;;;10526844;28;20020;-81
2023/04/24 13:06:35;;;;;;;6.78;4.63;;;;;;;;;;10483475;28;20044;-79
2023/04/24 13:11:36;;;;;;;7.40;4.70;;;;;;;;;;10486199;28;20024;-80
2023/04/24 13:16:37;;;;;;;5.22;4.72;;;;;;;;;;10483633;28;20035;-82
2023/04/24 13:21:38;;;;;;;6.63;4.70;;;;;;;;;;10472124;28;20032;-80
2023/04/24 13:26:39;;;;;;;5.05;4.53;;;;;;;;;;10483124;28;20765;-81
2023/04/24 13:31:40;;;;;;;8.07;4.13;;;;;;;;;;10483534;28;20476;-79
2023/04/24 13:36:41;;;;;;;6.57;4.35;;;;;;;;;;10484554;28;20040;-80
2023/04/24 13:41:42;;;;;;;4.22;3.17;;;;;;;;;;10478937;28;20091;-81
2023/04/24 13:46:44;;;;;;;6.63;3.08;;;;;;;;;;10475386;28;20048;-79
2023/04/24 13:51:45;;;;;;;4.68;3.17;;;;;;;;;;10491038;28;20028;-81
2023/04/24 13:56:46;;;;;;;6.03;3.17;;;;;;;;;;10491293;28;20036;-82
2023/04/24 14:01:50;;;;;;;3.38;3.08;;;;;;;;;;10492316;28;20097;-80
2023/04/24 14:06:51;;;;;;;5.65;4.10;;;;;;;;;;10533521;28;20113;-80
2023/04/24 14:11:52;;;;;;;6.28;3.88;;;;;;;;;;10533526;28;20636;-81
2023/04/24 14:16:53;;;;;;;5.25;4.00;;;;;;;;;;10532235;28;20105;-81
2023/04/24 14:21:58;;;;;;;6.07;4.40;;;;;;;;;;10514170;28;20813;-80
2023/04/24 14:27:00;;;;;;;7.80;5.18;;;;;;;;;;10533273;28;20058;-80
2023/04/24 14:32:00;;;;;;;7.50;5.20;;;;;;;;;;10531047;28;20044;-79
2023/04/24 14:37:02;;;;;;;7.68;5.60;;;;;;;;;;10531528;28;20115;-79
2023/04/24 14:42:03;;;;;;;16.27;9.30;;;;;;;;;;10535031;28;20036;-80
2023/04/24 14:47:04;;;;;;;9.27;6.68;;;;;;;;;;10533592;28;20047;-80
2023/04/24 14:52:05;;;;;;;14.23;9.52;;;;;;;;;;10527682;28;20101;-79
2023/04/24 14:57:06;;;;;;;9.02;6.65;;;;;;;;;;10557009;28;20024;-79
2023/04/24 15:02:07;;;;;;;8.65;5.88;;;;;;;;;;10523050;28;20056;-80
2023/04/24 15:07:08;;;;;;;6.63;5.13;;;;;;;;;;10528644;28;20471;-80
2023/04/24 15:12:09;;;;;;;9.18;6.03;;;;;;;;;;10527282;28;20032;-80
2023/04/24 15:17:10;;;;;;;9.02;6.20;;;;;;;;;;10519847;28;20028;-81
2023/04/24 15:22:13;;;;;;;7.20;6.28;;;;;;;;;;10530686;28;20050;-80
2023/04/24 15:27:14;;;;;;;9.45;6.63;;;;;;;;;;10528536;28;20039;-81
2023/04/24 15:32:17;;;;;;;8.07;5.93;;;;;;;;;;10540871;28;20036;-82
2023/04/24 15:37:18;;;;;;;6.22;5.60;;;;;;;;;;10530341;28;20038;-80
2023/04/24 15:42:19;;;;;;;7.57;5.47;;;;;;;;;;10529642;28;20376;-80
2023/04/24 15:47:20;;;;;;;6.53;5.45;;;;;;;;;;10508871;28;20060;-81
2023/04/24 15:52:21;;;;;;;7.65;5.00;;;;;;;;;;10528442;28;20117;-79
2023/04/24 15:57:24;;;;;;;7.63;5.60;;;;;;;;;;10528328;28;20081;-80
2023/04/24 16:02:29;;;;;;;10.18;6.78;;;;;;;;;;10529022;28;20070;-81
2023/04/24 16:07:31;;;;;;;7.75;5.53;;;;;;;;;;10528306;28;20043;-81
2023/04/24 16:12:32;;;;;;;6.40;5.70;;;;;;;;;;10527844;28;20024;-82
2023/04/24 16:17:33;;;;;;;8.80;6.28;;;;;;;;;;10526207;28;20507;-79
2023/04/24 16:22:34;;;;;;;8.77;6.32;;;;;;;;;;10508942;28;20032;-80
2023/04/24 16:27:36;;;;;;;8.13;6.22;;;;;;;;;;10528025;28;20510;-80
2023/04/24 16:32:37;;;;;;;8.13;5.72;;;;;;;;;;10526848;28;20031;-81
2023/04/24 16:37:40;;;;;;;7.30;5.55;;;;;;;;;;10525873;28;20026;-81
2023/04/24 16:42:41;;;;;;;7.60;5.32;;;;;;;;;;10520841;28;20028;-79
2023/04/24 16:47:46;;;;;;;6.65;5.93;;;;;;;;;;10535607;28;20036;-83
2023/04/24 16:52:47;;;;;;;8.02;7.07;;;;;;;;;;10528345;28;20048;-83
2023/04/24 16:57:48;;;;;;;9.80;6.97;;;;;;;;;;10507064;28;20028;-82
2023/04/24 17:02:49;;;;;;;8.48;7.05;;;;;;;;;;10526913;28;20414;-81
2023/04/24 17:07:50;;;;;;;9.15;6.60;;;;;;;;;;10526300;28;20115;-81
2023/04/24 17:12:51;;;;;;;7.88;6.85;;;;;;;;;;10531459;28;20036;-82
2023/04/24 17:17:52;;;;;;;11.10;7.65;;;;;;;;;;10522482;28;20028;-82
2023/04/24 17:22:53;;;;;;;15.07;10.63;;;;;;;;;;10527420;28;20042;-82
2023/04/24 17:27:54;;;;;;;12.25;8.75;;;;;;;;;;10534321;28;20057;-80
2023/04/24 17:32:55;;;;;;;12.10;9.98;;;;;;;;;;10537054;28;20772;-81
2023/04/24 17:37:57;;;;;;;11.32;8.73;;;;;;;;;;10530750;28;20058;-82
2023/04/24 17:42:58;;;;;;;13.02;10.52;;;;;;;;;;10533807;28;20032;-81
2023/04/24 17:47:59;;;;;;;10.60;8.07;;;;;;;;;;10532886;28;20048;-81
2023/04/24 17:53:00;;;;;;;12.73;8.32;;;;;;;;;;10531837;28;20036;-81
2023/04/24 17:58:01;;;;;;;12.68;8.68;;;;;;;;;;10530794;28;20020;-79
2023/04/24 18:03:03;;;;;;;11.55;8.40;;;;;;;;;;10532647;28;20479;-79
2023/04/24 18:08:04;;;;;;;15.75;9.52;;;;;;;;;;10532544;28;20134;-80
2023/04/24 18:13:05;;;;;;;16.88;11.45;;;;;;;;;;10533502;28;20635;-80
2023/04/24 18:18:06;;;;;;;19.45;12.55;;;;;;;;;;10532624;28;20078;-81
2023/04/24 18:23:07;;;;;;;18.75;12.45;;;;;;;;;;10532033;28;20016;-81
2023/04/24 18:28:08;;;;;;;15.38;11.65;;;;;;;;;;10532107;28;20044;-79
2023/04/24 18:33:09;;;;;;;28.25;16.65;;;;;;;;;;10530138;28;20372;-79
2023/04/24 18:38:10;;;;;;;38.47;22.38;;;;;;;;;;10530598;28;20036;-80
2023/04/24 18:43:11;;;;;;;23.90;14.88;;;;;;;;;;10513025;28;20155;-81
2023/04/24 18:48:13;;;;;;;20.63;14.13;;;;;;;;;;10529465;28;20489;-82
2023/04/24 18:53:17;;;;;;;23.38;15.70;;;;;;;;;;10531637;28;20616;-81
2023/04/24 18:58:18;;;;;;;28.35;18.92;;;;;;;;;;10504216;28;20108;-80
2023/04/24 19:03:19;;;;;;;35.80;21.98;;;;;;;;;;10531493;28;20052;-80
2023/04/24 19:08:20;;;;;;;45.60;23.60;;;;;;;;;;10511914;28;21021;-79
2023/04/24 19:13:21;;;;;;;54.03;25.88;;;;;;;;;;10529979;28;20141;-81
2023/04/24 19:18:25;;;;;;;29.40;17.52;;;;;;;;;;10530487;28;20035;-82
2023/04/24 19:23:26;;;;;;;26.73;16.85;;;;;;;;;;10530246;28;20471;-83
2023/04/24 19:28:28;;;;;;;46.28;26.58;;;;;;;;;;10528709;28;20075;-81
2023/04/24 19:33:29;;;;;;;29.65;20.10;;;;;;;;;;10529218;28;20079;-82
2023/04/24 19:38:30;;;;;;;37.50;22.42;;;;;;;;;;10529360;28;20118;-82
2023/04/24 19:43:31;;;;;;;37.05;23.30;;;;;;;;;;10527814;28;20024;-82
2023/04/24 19:48:34;;;;;;;32.38;19.95;;;;;;;;;;10527022;28;20495;-81
2023/04/24 19:53:35;;;;;;;28.40;20.10;;;;;;;;;;10529018;28;20110;-82
2023/04/24 19:58:36;;;;;;;30.02;20.08;;;;;;;;;;10536625;28;20023;-82
2023/04/24 20:03:37;;;;;;;27.55;20.02;;;;;;;;;;10517669;28;20054;-82
2023/04/24 20:08:38;;;;;;;29.05;20.13;;;;;;;;;;10533190;28;20100;-82
2023/04/24 20:13:39;;;;;;;32.25;20.80;;;;;;;;;;10528660;28;20391;-82
2023/04/24 20:18:40;;;;;;;26.05;19.25;;;;;;;;;;10527075;28;20429;-82
2023/04/24 20:23:42;;;;;;;27.33;19.23;;;;;;;;;;10527845;28;20582;-84
2023/04/24 20:28:43;;;;;;;30.10;21.15;;;;;;;;;;10527745;28;20599;-83
2023/04/24 20:33:44;;;;;;;27.20;19.13;;;;;;;;;;10526767;28;20028;-83
2023/04/24 20:38:46;;;;;;;32.53;21.45;;;;;;;;;;10527510;28;20153;-81
2023/04/24 20:43:48;;;;;;;36.40;27.05;;;;;;;;;;10526716;28;20024;-82
2023/04/24 20:48:49;;;;;;;35.97;24.77;;;;;;;;;;10526848;28;20047;-82
2023/04/24 20:53:52;;;;;;;39.67;27.27;;;;;;;;;;10526986;28;20115;-83
2023/04/24 20:58:53;;;;;;;36.70;26.52;;;;;;;;;;10525934;28;20820;-82
2023/04/24 21:03:54;;;;;;;62.65;37.22;;;;;;;;;;10526113;28;20052;-81
2023/04/24 21:08:55;;;;;;;53.35;34.88;;;;;;;;;;10526810;28;20573;-82
2023/04/24 21:13:56;;;;;;;49.33;33.42;;;;;;;;;;10526601;28;20162;-82
2023/04/24 21:18:57;;;;;;;58.95;37.85;;;;;;;;;;10525649;28;20032;-83
2023/04/24 21:24:00;;;;;;;50.05;29.92;;;;;;;;;;10539615;28;20020;-82
2023/04/24 21:29:01;;;;;;;40.17;21.58;;;;;;;;;;10507373;28;20035;-84
2023/04/24 21:34:04;;;;;;;28.30;13.57;;;;;;;;;;10526085;28;20742;-84
2023/04/24 21:39:05;;;;;;;19.02;8.70;;;;;;;;;;10526770;28;20433;-84
2023/04/24 21:44:06;;;;;;;20.30;10.45;;;;;;;;;;10525700;28;20093;-83
2023/04/24 21:49:07;;;;;;;16.65;8.35;;;;;;;;;;10525818;28;20042;-83
2023/04/24 21:54:10;;;;;;;21.23;8.93;;;;;;;;;;10525720;28;20714;-83
2023/04/24 21:59:16;;;;;;;20.30;9.23;;;;;;;;;;10525350;28;20035;-84
2023/04/24 22:04:17;;;;;;;17.83;7.75;;;;;;;;;;10525021;28;20532;-85
2023/04/24 22:09:18;;;;;;;15.20;7.07;;;;;;;;;;10527811;28;20046;-84
2023/04/24 22:14:19;;;;;;;14.47;7.00;;;;;;;;;;10532485;28;20118;-83
2023/04/24 22:19:24;;;;;;;11.20;5.90;;;;;;;;;;10532511;28;20028;-82
2023/04/24 22:24:25;;;;;;;8.70;5.23;;;;;;;;;;10513500;28;20032;-83
2023/04/24 22:29:30;;;;;;;6.60;4.17;;;;;;;;;;10531693;28;20052;-83
2023/04/24 22:34:31;;;;;;;10.43;4.60;;;;;;;;;;10531396;28;20020;-83
2023/04/24 22:39:32;;;;;;;7.87;4.37;;;;;;;;;;10531909;28;20036;-85
2023/04/24 22:44:33;;;;;;;13.93;5.07;;;;;;;;;;10531677;28;20040;-84
2023/04/24 22:49:35;;;;;;;6.77;4.43;;;;;;;;;;10531698;28;20065;-83
2023/04/24 22:54:36;;;;;;;16.40;5.83;;;;;;;;;;10531051;28;20485;-83
2023/04/24 22:59:37;;;;;;;24.47;8.73;;;;;;;;;;10531304;28;20035;-83
2023/04/24 23:04:37;;;;;;;21.77;8.53;;;;;;;;;;10529881;28;20059;-84
2023/04/24 23:09:38;;;;;;;25.33;9.00;;;;;;;;;;10512516;28;20540;-83
2023/04/24 23:14:39;;;;;;;18.57;8.43;;;;;;;;;;10511723;28;20577;-84
2023/04/24 23:19:40;;;;;;;24.70;9.47;;;;;;;;;;10530144;28;20055;-84
2023/04/24 23:24:42;;;;;;;20.07;8.87;;;;;;;;;;10529046;28;20478;-86
2023/04/24 23:29:42;;;;;;;20.10;7.83;;;;;;;;;;10528996;28;20394;-84
2023/04/24 23:34:43;;;;;;;18.60;7.53;;;;;;;;;;10529143;28;20038;-84
2023/04/24 23:39:45;;;;;;;20.00;8.00;;;;;;;;;;10528733;28;20089;-85
2023/04/24 23:44:45;;;;;;;21.70;8.60;;;;;;;;;;10528379;28;20040;-84
2023/04/24 23:49:46;;;;;;;20.70;7.70;;;;;;;;;;10528229;28;20054;-83
2023/04/24 23:54:47;;;;;;;16.55;7.03;;;;;;;;;;10528290;28;20158;-84
2023/04/24 23:59:48;;;;;;;13.60;6.47;;;;;;;;;;10528165;28;20398;-84
